createdAt,value
2016-11-05T00:02:23.506Z,84.1
2016-11-05T00:05:40.728Z,84.29
2016-11-05T00:08:57.338Z,83.91
2016-11-05T00:12:14.039Z,84.1
2016-11-05T00:15:30.757Z,83.44
2016-11-05T00:18:47.697Z,83.34
2016-11-05T00:22:04.711Z,82.39
2016-11-05T00:25:21.413Z,81.63
2016-11-05T00:28:38.452Z,82.39
2016-11-05T00:31:55.192Z,83.82
2016-11-05T00:35:11.895Z,83.25
2016-11-05T00:38:29.160Z,84.29
2016-11-05T00:41:46.201Z,83.91
2016-11-05T00:45:03.825Z,83.91
2016-11-05T00:48:21.813Z,84.1
2016-11-05T00:51:38.491Z,84.1
2016-11-05T00:54:54.915Z,84.1
2016-11-05T00:58:12.439Z,83.72
2016-11-05T01:01:29.333Z,83.91
2016-11-05T01:04:46.441Z,83.91
2016-11-05T01:08:02.863Z,84.1
2016-11-05T01:11:20.223Z,84.86
2016-11-05T01:14:37.478Z,84.63
2016-11-05T01:17:54.319Z,84.86
2016-11-05T01:21:11.053Z,84.48
2016-11-05T01:24:27.726Z,84.77
2016-11-05T01:27:44.773Z,84.72
2016-11-05T01:31:01.468Z,84.67
2016-11-05T01:34:18.211Z,84.48
2016-11-05T01:37:35.676Z,84.86
2016-11-05T01:40:53.172Z,84.58
2016-11-05T01:44:09.833Z,85.05
2016-11-05T01:47:27.057Z,84.95
2016-11-05T01:50:43.988Z,84.58
2016-11-05T01:54:00.943Z,84.91
2016-11-05T01:57:17.972Z,84.91
2016-11-05T02:00:34.545Z,85.34
2016-11-05T02:03:51.995Z,84.91
2016-11-05T02:07:08.513Z,85.72
2016-11-05T02:10:25.595Z,85.58
2016-11-05T02:13:41.973Z,85.39
2016-11-05T02:16:59.736Z,85.01
2016-11-05T02:20:16.474Z,84.95
2016-11-05T02:23:33.130Z,85.53
2016-11-05T02:26:49.407Z,84.91
2016-11-05T02:30:06.354Z,85.39
2016-11-05T02:33:23.028Z,85.05
2016-11-05T02:36:40.054Z,84.91
2016-11-05T02:39:56.780Z,85.05
2016-11-05T02:43:14.070Z,85.15
2016-11-05T02:46:30.641Z,85.58
2016-11-05T02:49:48.250Z,85.39
2016-11-05T02:53:05.047Z,84.72
2016-11-05T02:56:22.019Z,85.11
2016-11-05T02:59:38.519Z,85.58
2016-11-05T03:02:56.223Z,85.58
2016-11-05T03:06:12.846Z,85.11
2016-11-05T03:09:30.318Z,85.11
2016-11-05T03:12:46.719Z,84.58
2016-11-05T03:16:04.263Z,84.58
2016-11-05T03:19:20.742Z,84.95
2016-11-05T03:22:37.780Z,85.01
2016-11-05T03:25:54.468Z,84.63
2016-11-05T03:33:11.949Z,85.05
2016-11-05T03:36:28.947Z,84.82
2016-11-05T03:39:45.272Z,84.67
2016-11-05T03:43:02.202Z,85.05
2016-11-05T03:46:18.624Z,84.77
2016-11-05T03:49:35.717Z,85.43
2016-11-05T03:52:52.361Z,85.58
2016-11-05T03:56:09.230Z,85.39
2016-11-05T03:59:25.562Z,84.58
2016-11-05T04:02:42.886Z,84.67
2016-11-05T04:05:59.167Z,85.53
2016-11-05T04:09:16.606Z,85.11
2016-11-05T04:12:33.062Z,85.62
2016-11-05T04:15:50.074Z,85.68
2016-11-05T04:19:06.336Z,85.91
2016-11-05T04:22:23.581Z,85.58
2016-11-05T04:25:40.587Z,85.49
2016-11-05T04:28:57.938Z,85.2
2016-11-05T04:32:14.446Z,85.43
2016-11-05T04:35:31.313Z,85.05
2016-11-05T04:38:48.592Z,85.72
2016-11-05T04:42:05.286Z,85.81
2016-11-05T04:45:22.220Z,85.91
2016-11-05T04:48:39.133Z,85.53
2016-11-05T04:51:55.700Z,85.11
2016-11-05T04:55:12.619Z,84.77
2016-11-05T04:58:28.974Z,84.48
2016-11-05T05:01:45.887Z,84.72
2016-11-05T05:10:17.222Z,85.62
2016-11-05T05:13:34.591Z,85.62
2016-11-05T05:16:51.324Z,85.05
2016-11-05T05:20:08.641Z,85.53
2016-11-05T05:23:25.406Z,86
2016-11-05T05:26:43.465Z,85.62
2016-11-05T05:30:00.129Z,85.34
2016-11-05T05:33:17.631Z,85.62
2016-11-05T05:36:34.317Z,85.15
2016-11-05T05:39:51.655Z,85.24
2016-11-05T05:43:09.282Z,84.44
2016-11-05T05:46:26.439Z,84.77
2016-11-05T05:49:43.113Z,85.34
2016-11-05T05:53:00.263Z,85.43
2016-11-05T05:56:17.398Z,85.86
2016-11-05T05:59:34.313Z,85.96
2016-11-05T06:02:51.280Z,86.24
2016-11-05T06:06:08.160Z,85.77
2016-11-05T06:09:25.253Z,85.62
2016-11-05T06:12:42.633Z,85.15
2016-11-05T06:15:59.927Z,85.05
2016-11-05T06:19:17.480Z,84.48
2016-11-05T06:22:34.907Z,84.58
2016-11-05T06:25:52.108Z,84.58
2016-11-05T06:29:09.988Z,84.77
2016-11-05T06:32:26.977Z,84.77
2016-11-05T06:35:44.336Z,84.86
2016-11-05T06:39:01.615Z,84.67
2016-11-05T06:42:18.973Z,83.53
2016-11-05T06:45:35.857Z,84.2
2016-11-05T06:48:53.168Z,84.1
2016-11-05T06:52:10.393Z,83.62
2016-11-05T06:55:27.013Z,83.48
2016-11-05T06:58:44.246Z,83.34
2016-11-05T07:02:01.419Z,83.29
2016-11-05T07:05:18.604Z,83.29
2016-11-05T07:08:35.089Z,83.29
2016-11-05T07:11:52.679Z,83.39
2016-11-05T07:16:22.829Z,83
2016-11-05T07:19:55.217Z,82.81
2016-11-05T07:23:11.676Z,84.91
2016-11-05T07:26:28.991Z,84.43
2016-11-05T07:29:45.964Z,83.29
2016-11-05T07:33:03.545Z,82.62
2016-11-05T07:36:20.442Z,82.62
2016-11-05T07:39:37.994Z,82.34
2016-11-05T07:42:55.793Z,82.34
2016-11-05T07:46:13.023Z,81.96
2016-11-05T07:49:30.363Z,82.62
2016-11-05T07:52:48.473Z,87.76
2016-11-05T07:56:06.464Z,81.9
2016-11-05T07:59:29.249Z,83.14
2016-11-05T08:02:46.702Z,84.66
2016-11-05T08:06:03.907Z,84.66
2016-11-05T08:09:21.062Z,84.95
2016-11-05T08:12:38.885Z,84.66
2016-11-05T08:15:55.713Z,84.09
2016-11-05T08:19:12.753Z,84.38
2016-11-05T08:26:31.524Z,83.81
2016-11-05T08:29:48.266Z,84.09
2016-11-05T08:33:05.409Z,84
2016-11-05T08:36:22.285Z,84.09
2016-11-05T08:39:39.508Z,84
2016-11-05T08:42:56.101Z,83.71
2016-11-05T08:46:13.711Z,82.76
2016-11-05T08:49:30.538Z,83.04
2016-11-05T08:52:47.977Z,83.04
2016-11-05T08:56:04.949Z,83.52
2016-11-05T08:59:22.020Z,83.9
2016-11-05T09:02:39.151Z,84
2016-11-05T09:06:11.142Z,83.42
2016-11-05T09:09:42.530Z,83.42
2016-11-05T09:13:00.431Z,84.28
2016-11-05T09:16:16.824Z,83.81
2016-11-05T09:19:48.325Z,84.19
2016-11-05T09:24:04.107Z,84.28
2016-11-05T09:27:21.233Z,84.76
2016-11-05T09:30:55.572Z,84.28
2016-11-05T09:34:13.093Z,83.62
2016-11-05T09:38:14.451Z,84.19
2016-11-05T09:41:49.103Z,83.81
2016-11-05T09:45:37.165Z,83.81
2016-11-05T09:48:56.142Z,84
2016-11-05T09:52:18.244Z,84.19
2016-11-05T09:55:54.024Z,83.71
2016-11-05T09:59:26.357Z,83.94
2016-11-05T10:02:51.852Z,84.42
2016-11-05T10:06:16.174Z,85.71
2016-11-05T10:09:36.709Z,86.18
2016-11-05T10:13:11.123Z,86.76
2016-11-05T10:16:47.651Z,86.85
2016-11-05T10:20:06.275Z,87.04
2016-11-05T10:23:25.655Z,87.23
2016-11-05T10:26:43.616Z,87.71
2016-11-05T10:30:04.002Z,87.8
2016-11-05T10:33:23.199Z,87.13
2016-11-05T10:36:43.393Z,87.61
2016-11-05T10:40:01.958Z,87.32
2016-11-05T10:43:21.558Z,87.23
2016-11-05T10:46:43.571Z,86.76
2016-11-05T10:50:19.863Z,85.99
2016-11-05T10:53:54.314Z,86.76
2016-11-05T10:57:11.668Z,86.57
2016-11-05T11:00:30.312Z,86.18
2016-11-05T11:04:20.211Z,86.38
2016-11-05T11:07:42.552Z,86.28
2016-11-05T11:10:59.520Z,86.7
2016-11-05T11:14:15.904Z,86.51
2016-11-05T11:22:18.139Z,85.47
2016-11-05T11:25:50.272Z,84.89
2016-11-05T11:29:07.740Z,84.33
2016-11-05T11:32:24.847Z,84.04
2016-11-05T11:35:42.300Z,83.94
2016-11-05T11:38:59.448Z,84.52
2016-11-05T11:42:16.310Z,84.23
2016-11-05T11:45:33.877Z,84.52
2016-11-05T11:48:50.888Z,84.99
2016-11-05T11:52:07.870Z,84.89
2016-11-05T11:55:54.518Z,84.7
2016-11-05T11:59:56.496Z,85.08
2016-11-05T12:03:27.935Z,84.84
2016-11-05T12:07:00.792Z,85.56
2016-11-05T12:10:18.636Z,85.56
2016-11-05T12:13:36.796Z,84.89
2016-11-05T12:17:25.390Z,85.66
2016-11-05T12:21:51.330Z,84.89
2016-11-05T12:30:27.861Z,85.56
2016-11-05T12:34:08.592Z,86.51
2016-11-05T12:38:02.723Z,85.75
2016-11-05T12:42:38.613Z,85.66
2016-11-05T12:47:20.152Z,85.94
2016-11-05T12:51:35.491Z,86.42
2016-11-05T13:20:26.848Z,86.36
2016-11-05T13:23:44.396Z,85.8
2016-11-05T13:27:01.464Z,84.94
2016-11-05T13:30:18.644Z,84.56
2016-11-05T13:33:35.351Z,84.65
2016-11-05T13:36:52.620Z,84.46
2016-11-05T13:40:10.018Z,84.08
2016-11-05T13:43:27.036Z,84.08
2016-11-05T13:46:44.147Z,84.17
2016-11-05T13:50:15.920Z,84.27
2016-11-05T13:54:02.321Z,84.84
2016-11-05T14:02:04.453Z,84.36
2016-11-05T14:05:36.526Z,83.89
2016-11-05T14:09:08.004Z,84.08
2016-11-05T14:12:26.988Z,84.27
2016-11-05T14:15:43.841Z,85.22
2016-11-05T14:20:14.660Z,86.55
2016-11-05T14:24:00.836Z,86.18
2016-11-05T14:27:17.615Z,86.27
2016-11-05T14:30:34.941Z,85.99
2016-11-05T14:33:52.286Z,85.7
2016-11-05T14:37:10.009Z,85.99
2016-11-05T14:48:14.804Z,85.89
2016-11-05T14:51:47.064Z,85.99
2016-11-05T14:55:20.136Z,85.8
2016-11-05T14:58:38.374Z,83.28
2016-11-05T15:02:11.064Z,82.56
2016-11-05T15:05:28.071Z,82.27
2016-11-05T15:08:45.341Z,82.27
2016-11-05T15:12:31.446Z,82.23
2016-11-05T15:20:48.734Z,81.56
2016-11-05T15:24:35.857Z,82.7
2016-11-05T15:28:09.323Z,85.56
2016-11-05T15:31:40.752Z,86.61
2016-11-05T15:35:12.712Z,86.22
2016-11-05T15:38:29.604Z,86.51
2016-11-05T15:41:46.951Z,86.13
2016-11-05T15:45:03.990Z,86.42
2016-11-05T15:48:21.341Z,86.61
2016-11-05T15:51:38.104Z,87.18
2016-11-05T15:54:55.528Z,86.9
2016-11-05T15:58:12.180Z,86.9
2016-11-05T16:01:28.746Z,87.27
2016-11-05T16:04:46.488Z,86.99
2016-11-05T16:08:03.409Z,86.7
2016-11-05T16:11:20.205Z,87.46
2016-11-05T16:14:37.146Z,87.27
2016-11-05T16:17:54.094Z,88.7
2016-11-05T16:21:10.878Z,88.37
2016-11-05T16:24:28.046Z,88.56
2016-11-05T16:27:45.183Z,88.66
2016-11-05T16:31:02.092Z,88.75
2016-11-05T16:34:19.606Z,88.94
2016-11-05T16:37:36.644Z,88.94
2016-11-05T16:40:53.554Z,88.85
2016-11-05T16:44:10.502Z,88.75
2016-11-05T16:47:27.829Z,88.94
2016-11-05T16:50:44.657Z,89.23
2016-11-05T16:54:01.192Z,88.85
2016-11-05T16:57:18.388Z,89.14
2016-11-05T17:00:35.123Z,89.23
2016-11-05T17:03:51.757Z,89.7
2016-11-05T17:07:22.979Z,89.51
2016-11-05T17:10:40.252Z,89.61
2016-11-05T17:13:57.169Z,89.7
2016-11-05T17:17:14.220Z,89.23
2016-11-05T17:20:31.704Z,89.04
2016-11-05T17:23:48.666Z,89.32
2016-11-05T17:27:05.105Z,89.7
2016-11-05T17:30:22.323Z,89
2016-11-05T17:33:38.771Z,89.18
2016-11-05T17:36:56.038Z,88.71
2016-11-05T17:40:12.562Z,89.28
2016-11-05T17:43:29.956Z,89.28
2016-11-05T17:46:46.432Z,89.85
2016-11-05T17:50:03.762Z,89.28
2016-11-05T17:53:20.242Z,89.18
2016-11-05T17:56:37.911Z,89.66
2016-11-05T17:59:55.031Z,88.61
2016-11-05T18:03:12.149Z,89
2016-11-05T18:06:29.163Z,89
2016-11-05T18:09:45.963Z,89
2016-11-05T18:13:02.872Z,89.47
2016-11-05T18:16:22.735Z,89.28
2016-11-05T18:19:39.658Z,89.37
2016-11-05T18:22:56.764Z,89.66
2016-11-05T18:26:15.685Z,89.28
2016-11-05T18:29:38.531Z,89.56
2016-11-05T18:32:58.034Z,89.66
2016-11-05T18:36:27.316Z,90.04
2016-11-05T18:39:53.106Z,89.94
2016-11-05T18:43:19.376Z,89.23
2016-11-05T18:46:37.204Z,89.28
2016-11-05T18:49:55.284Z,88.8
2016-11-05T18:53:12.433Z,89.33
2016-11-05T18:56:29.417Z,89.42
2016-11-05T18:59:46.677Z,89.42
2016-11-05T19:03:03.511Z,88.95
2016-11-05T19:06:21.028Z,88.95
2016-11-05T19:09:38.284Z,88.76
2016-11-05T19:12:54.740Z,88.67
2016-11-05T19:16:12.134Z,89.04
2016-11-05T19:23:59.429Z,88.57
2016-11-05T19:27:16.772Z,88.76
2016-11-05T19:30:33.657Z,88.67
2016-11-05T19:33:50.511Z,87.9
2016-11-05T19:37:07.914Z,88.38
2016-11-05T19:40:24.645Z,88.47
2016-11-05T19:43:42.189Z,88.23
2016-11-05T19:46:58.830Z,87.81
2016-11-05T19:50:30.830Z,87.85
2016-11-05T19:53:47.421Z,88.47
2016-11-05T19:57:04.565Z,88.09
2016-11-05T20:00:21.191Z,88.85
2016-11-05T20:03:38.328Z,88.67
2016-11-05T20:06:55.243Z,88.67
2016-11-05T20:10:12.751Z,88.95
2016-11-05T20:13:44.365Z,89.14
2016-11-05T20:17:01.853Z,88.76
2016-11-05T20:20:19.216Z,88.76
2016-11-05T20:23:36.450Z,88.85
2016-11-05T20:26:53.237Z,88.85
2016-11-05T20:30:10.473Z,89.23
2016-11-05T21:07:27.501Z,53.39
2016-11-05T21:11:31.489Z,49.05
2016-11-05T21:13:00.777Z,55.67
2016-11-05T21:15:59.950Z,71.7
2016-11-05T21:18:58.475Z,79.63
2016-11-05T21:20:28.601Z,81.63
2016-11-05T21:21:44.274Z,82.54
2016-11-05T21:22:58.988Z,83.2
2016-11-05T21:24:13.948Z,83.49
2016-11-05T21:25:28.627Z,83.78
2016-11-05T21:26:46.104Z,83.68
2016-11-05T21:28:09.641Z,83.97
2016-11-05T21:29:26.637Z,84.53
2016-11-05T21:30:42.981Z,84.53
2016-11-05T21:31:59.562Z,84.63
2016-11-05T21:33:14.184Z,84.72
2016-11-05T21:34:40.971Z,84.63
2016-11-05T21:36:01.633Z,84.53
2016-11-05T21:37:19.295Z,84.44
2016-11-05T21:39:07.515Z,84.16
2016-11-05T21:40:27.154Z,84.06
2016-11-05T21:41:45.016Z,84.53
2016-11-05T21:43:00.167Z,84.63
2016-11-05T21:44:14.885Z,84.53
2016-11-05T21:45:30.540Z,84.82
2016-11-05T21:47:00.372Z,85.39
2016-11-05T21:48:15.406Z,85.58
2016-11-05T21:49:31.046Z,86.34
2016-11-05T21:50:52.010Z,86.01
2016-11-05T21:52:10.414Z,86.01
2016-11-05T21:53:26.811Z,86.2
2016-11-05T21:54:42.621Z,86.68
2016-11-05T21:55:57.603Z,86.58
2016-11-05T21:57:12.168Z,86.68
2016-11-05T21:58:26.512Z,86.77
2016-11-05T21:59:41.225Z,86.96
2016-11-05T22:00:55.602Z,86.87
2016-11-05T22:02:10.510Z,86.87
2016-11-05T22:03:25.039Z,86.58
2016-11-05T22:04:39.525Z,86.39
2016-11-05T22:05:54.283Z,86.39
2016-11-05T22:07:08.931Z,86.49
2016-11-05T22:08:23.632Z,86.77
2016-11-05T22:09:38.011Z,86.87
2016-11-05T22:10:52.942Z,86.87
2016-11-05T22:12:07.554Z,86.87
2016-11-05T22:13:21.883Z,86.96
2016-11-05T22:14:36.696Z,87.05
2016-11-05T22:15:51.293Z,86.96
2016-11-05T22:17:05.633Z,86.77
2016-11-05T22:18:19.923Z,86.96
2016-11-05T22:19:34.367Z,86.58
2016-11-05T22:20:49.253Z,86.96
2016-11-05T22:22:04.403Z,86.87
2016-11-05T22:23:18.783Z,86.96
2016-11-05T22:24:33.322Z,86.96
2016-11-05T22:25:47.791Z,87.34
2016-11-05T22:27:02.508Z,87.05
2016-11-05T22:28:16.568Z,87.05
2016-11-05T22:29:30.884Z,87.72
2016-11-05T22:31:00.403Z,87.15
2016-11-05T22:32:17.480Z,87.72
2016-11-05T22:33:32.239Z,87.53
2016-11-05T22:34:46.713Z,87.53
2016-11-05T22:36:00.972Z,87.43
2016-11-05T22:37:15.957Z,87.53
2016-11-05T22:38:30.454Z,87.43
2016-11-05T22:39:45.381Z,87.53
2016-11-05T22:40:59.677Z,87.43
2016-11-05T22:42:14.074Z,87.05
2016-11-05T22:43:29.120Z,86.58
2016-11-05T22:44:43.702Z,86.58
2016-11-05T22:45:58.242Z,86.96
2016-11-05T22:47:12.979Z,86.49
2016-11-05T22:48:27.423Z,86.87
2016-11-05T22:49:43.105Z,86.77
2016-11-05T22:50:58.580Z,86.39
2016-11-05T22:52:14.173Z,86.77
2016-11-05T22:54:58.237Z,86.3
2016-11-05T22:56:13.420Z,86.39
2016-11-05T23:00:39.579Z,86.2
2016-11-05T23:01:54.808Z,85.91
2016-11-05T23:03:09.985Z,85.91
2016-11-05T23:04:24.476Z,86.49
2016-11-05T23:05:39.976Z,85.91
2016-11-05T23:06:55.276Z,85.82
2016-11-05T23:08:09.694Z,85.82
2016-11-05T23:09:24.528Z,85.82
2016-11-05T23:10:38.990Z,85.72
2016-11-05T23:11:54.440Z,85.82
2016-11-05T23:13:09.033Z,85.25
2016-11-05T23:14:23.798Z,85.53
2016-11-05T23:15:38.711Z,85.72
2016-11-05T23:16:53.308Z,85.35
2016-11-05T23:18:08.058Z,85.63
2016-11-05T23:19:22.873Z,85.35
2016-11-05T23:20:37.210Z,85.49
2016-11-05T23:21:52.111Z,85.44
2016-11-05T23:23:06.826Z,85.63
2016-11-05T23:24:22.068Z,85.72
2016-11-05T23:25:36.613Z,85.53
2016-11-05T23:26:51.296Z,86.01
2016-11-05T23:28:06.650Z,85.53
2016-11-05T23:29:21.589Z,85.53
2016-11-05T23:30:36.079Z,85.53
2016-11-05T23:31:51.334Z,85.35
2016-11-05T23:33:07.317Z,85.35
2016-11-05T23:34:22.439Z,85.53
2016-11-05T23:35:36.903Z,86.3
2016-11-05T23:36:51.820Z,85.72
2016-11-05T23:38:06.196Z,85.97
2016-11-05T23:39:21.182Z,86.16
2016-11-05T23:40:36.401Z,85.53
2016-11-05T23:41:51.257Z,86.16
2016-11-05T23:43:21.292Z,85.97
2016-11-05T23:44:36.160Z,86.44
2016-11-05T23:45:51.331Z,86.91
2016-11-05T23:47:06.450Z,86.63
2016-11-05T23:48:22.775Z,86.63
2016-11-05T23:49:37.293Z,86.82
2016-11-05T23:50:51.974Z,86.63
2016-11-05T23:52:10.718Z,86.16
2016-11-05T23:53:26.808Z,86.54
2016-11-05T23:54:41.711Z,86.54
2016-11-05T23:56:11.553Z,86.63
2016-11-05T23:57:48.719Z,86.72
2016-11-05T23:59:04.995Z,87.01
